Ironton, Texas
Current Conditions -  °F | °C
As of 11:35 PM on Friday 24 Oct 2014 (Local Time) from KJSO Reporting Station
Clear Clear  
Wind Chill: 67°   Ceiling: Unl
Heat Index: 67°   Visibility: 10mi
Dew Point: 57°   Wind: 6mph
Humidity: 72%   Direction: 180°S
Pressure: 30.16"   Gusts: NA
Location:  31.9649°N, 95.3036°W
Report Text: KJSO 250435Z AUTO 18005KT 10SM CLR 19/13 A3016 RMK AO2 T01920140
Loading
Personal Weather Stations






























Interactive Weather Map
Tropical Storm Tracking
New forecast layout! Learn more

10-Day Weather Forecast

Advertisements
Track Severe Weather on mobile